Time;durP1;ratioP1;P1;durP2;ratioP2;P2;SDS_P1;SDS_P2;PMS_P1;PMS_P2;Temp;Humidity;BMP_temperature;BMP_pressure;BME280_temperature;BME280_humidity;BME280_pressure;Samples;Min_cycle;Max_cycle;Signal;HPM_P1;HPM_P2
2021/01/04 00:00:12;;;;;;;19.43;10.27;;;;;;;-1.17;100.00;100741.00;5033004;28;20192;-81
2021/01/04 00:03:10;;;;;;;23.00;10.70;;;;;;;-1.16;100.00;100737.63;5037693;28;20238;-81
2021/01/04 00:05:40;;;;;;;15.37;9.20;;;;;;;-1.16;100.00;100737.63;5033538;28;20209;-81
2021/01/04 00:08:29;;;;;;;16.77;9.47;;;;;;;-1.16;100.00;100742.75;5033747;28;20199;-81
2021/01/04 00:11:10;;;;;;;15.97;8.03;;;;;;;-1.13;100.00;100744.50;5015374;28;20721;-81
2021/01/04 00:13:42;;;;;;;20.80;10.10;;;;;;;-1.13;100.00;100737.69;5029739;28;20200;-80
2021/01/04 00:16:17;;;;;;;16.70;10.27;;;;;;;-1.12;100.00;100734.31;5006771;28;20203;-81
2021/01/04 00:18:47;;;;;;;15.77;9.13;;;;;;;-1.11;100.00;100735.16;5032671;28;20211;-81
2021/01/04 00:21:26;;;;;;;17.77;10.00;;;;;;;-1.12;100.00;100733.44;5026402;28;20196;-81
2021/01/04 00:24:04;;;;;;;19.23;10.10;;;;;;;-1.12;100.00;100731.75;5035514;28;20219;-81
2021/01/04 00:26:39;;;;;;;19.83;9.80;;;;;;;-1.11;100.00;100732.59;5016871;28;20199;-81
2021/01/04 00:29:05;;;;;;;17.27;9.13;;;;;;;-1.11;100.00;100730.91;5034933;28;20207;-81
2021/01/04 00:31:35;;;;;;;16.57;9.73;;;;;;;-1.10;100.00;100727.53;5010150;28;20278;-81
2021/01/04 00:34:05;;;;;;;19.83;9.37;;;;;;;-1.08;100.00;100718.19;5016616;28;20522;-81
2021/01/04 00:36:34;;;;;;;20.80;10.87;;;;;;;-1.10;100.00;100727.53;5033242;28;20200;-81
2021/01/04 00:39:20;;;;;;;21.83;10.67;;;;;;;-1.08;100.00;100730.13;5035621;28;20204;-80
2021/01/04 00:41:58;;;;;;;18.10;9.40;;;;;;;-1.07;100.00;100731.81;5012363;28;20231;-80
2021/01/04 00:44:29;;;;;;;26.23;10.93;;;;;;;-1.07;100.00;100732.72;5016577;28;20658;-81
2021/01/04 00:47:04;;;;;;;23.20;10.90;;;;;;;-1.06;100.00;100728.44;5030210;28;20818;-81
2021/01/04 00:49:32;;;;;;;22.57;10.00;;;;;;;-1.06;100.00;100728.44;5037037;28;20663;-81
2021/01/04 00:52:08;;;;;;;25.33;11.10;;;;;;;-1.05;100.00;100732.75;5034437;28;20269;-80
2021/01/04 00:54:43;;;;;;;23.03;10.97;;;;;;;-1.05;100.00;100731.06;5036896;28;20195;-80
2021/01/04 00:57:24;;;;;;;21.30;10.23;;;;;;;-1.06;100.00;100729.31;5017094;28;20210;-81
2021/01/04 01:00:07;;;;;;;30.20;12.00;;;;;;;-1.05;100.00;100732.75;5038966;28;20210;-81
2021/01/04 01:02:58;;;;;;;24.13;11.23;;;;;;;-1.04;100.00;100743.03;5036421;28;20227;-80
2021/01/04 01:05:35;;;;;;;21.43;11.30;;;;;;;-1.04;100.00;100742.16;5030116;28;20243;-80
2021/01/04 01:08:13;;;;;;;28.67;11.13;;;;;;;-1.04;100.00;100737.03;5034913;28;20290;-80
2021/01/04 01:10:45;;;;;;;28.90;12.37;;;;;;;-1.03;100.00;100749.88;5009547;28;20207;-80
2021/01/04 01:13:24;;;;;;;23.43;11.27;;;;;;;-1.03;100.00;100743.88;5031390;28;20342;-81
2021/01/04 01:16:04;;;;;;;25.77;11.40;;;;;;;-1.03;100.00;100747.31;5036724;28;20195;-80
2021/01/04 01:18:36;;;;;;;24.60;11.10;;;;;;;-1.02;100.00;100749.03;5031124;28;20199;-81
2021/01/04 01:21:05;;;;;;;27.13;11.63;;;;;;;-1.03;100.00;100749.00;5032896;28;20278;-82
2021/01/04 01:23:34;;;;;;;24.77;11.30;;;;;;;-1.04;100.00;100748.16;5036286;28;20230;-81
2021/01/04 01:26:17;;;;;;;25.27;11.80;;;;;;;-1.04;100.00;100750.72;5035810;28;20234;-81
2021/01/04 01:29:06;;;;;;;29.67;12.00;;;;;;;-1.04;100.00;100744.72;5034987;28;20244;-81
2021/01/04 01:31:50;;;;;;;31.10;11.40;;;;;;;-1.04;100.00;100745.59;5036969;28;20211;-80
2021/01/04 01:34:22;;;;;;;33.90;13.93;;;;;;;-1.03;100.00;100743.88;5032728;28;20203;-80
2021/01/04 01:37:19;;;;;;;27.37;11.90;;;;;;;-1.04;100.00;100744.72;5034783;28;20196;-81
2021/01/04 01:40:05;;;;;;;34.63;14.10;;;;;;;-1.03;100.00;100743.88;5015780;28;20200;-80
2021/01/04 01:43:03;;;;;;;29.60;12.50;;;;;;;-1.03;100.00;100743.88;5031189;28;20224;-81
2021/01/04 01:45:37;;;;;;;25.83;12.40;;;;;;;-1.03;100.00;100746.44;5021602;28;20195;-81
2021/01/04 01:48:11;;;;;;;26.17;13.17;;;;;;;-1.04;100.00;100748.16;5039280;28;20288;-81
2021/01/04 01:50:44;;;;;;;33.03;12.87;;;;;;;-1.04;100.00;100748.16;5035243;28;20211;-81
2021/01/04 01:53:23;;;;;;;26.63;11.73;;;;;;;-1.04;100.00;100745.59;5039156;28;20227;-81
2021/01/04 01:56:01;;;;;;;25.47;11.83;;;;;;;-1.02;100.00;100748.16;5040324;28;20204;-81
2021/01/04 01:59:08;;;;;;;29.00;11.50;;;;;;;-1.04;100.00;100748.16;5041061;28;20191;-81
2021/01/04 02:01:43;;;;;;;31.47;13.17;;;;;;;-1.03;100.00;100754.97;5038535;28;20243;-81
2021/01/04 02:04:20;;;;;;;27.43;13.07;;;;;;;-1.03;100.00;100751.56;5040471;28;20197;-81
2021/01/04 02:07:02;;;;;;;32.17;12.33;;;;;;;-1.03;100.00;100754.13;5038494;28;20203;-81
2021/01/04 02:09:31;;;;;;;31.60;13.60;;;;;;;-1.03;100.00;100761.81;5036213;28;20210;-81
2021/01/04 02:12:09;;;;;;;28.87;11.87;;;;;;;-1.04;100.00;100754.94;5038796;28;20224;-81
2021/01/04 02:14:43;;;;;;;27.50;12.17;;;;;;;-1.03;100.00;100754.97;5040475;28;20265;-81
2021/01/04 02:17:27;;;;;;;35.00;15.40;;;;;;;-1.03;100.00;100759.25;5038786;28;20195;-81
2021/01/04 02:20:22;;;;;;;36.50;15.83;;;;;;;-1.03;100.00;100770.34;5034553;28;20215;-81
2021/01/04 02:23:07;;;;;;;29.70;14.80;;;;;;;-1.02;100.00;100766.06;5032770;28;20239;-81
2021/01/04 02:25:38;;;;;;;25.43;10.97;;;;;;;-1.02;100.00;100766.97;5035558;28;20212;-81
2021/01/04 02:28:09;;;;;;;37.37;13.50;;;;;;;-1.03;100.00;100762.66;5040952;28;20215;-81
2021/01/04 02:30:35;;;;;;;26.67;12.37;;;;;;;-1.03;100.00;100766.91;5035486;28;20383;-81
2021/01/04 02:33:02;;;;;;;25.67;12.17;;;;;;;-1.04;100.00;100766.06;5038022;28;20223;-81
2021/01/04 02:35:28;;;;;;;30.90;14.70;;;;;;;-1.02;100.00;100769.53;5041086;28;20321;-81
2021/01/04 02:37:54;;;;;;;27.17;12.40;;;;;;;-1.02;100.00;100769.53;5041034;28;20227;-81
2021/01/04 02:40:20;;;;;;;42.67;18.27;;;;;;;-1.02;100.00;100774.66;5039921;28;20203;-81
2021/01/04 02:42:49;;;;;;;36.90;13.27;;;;;;;-1.02;100.00;100772.09;5046575;28;20308;-81
2021/01/04 02:45:20;;;;;;;47.73;21.93;;;;;;;-1.02;100.00;100766.06;5050785;28;20204;-81
2021/01/04 02:48:05;;;;;;;29.00;12.43;;;;;;;-1.02;100.00;100756.72;5047803;28;20773;-81
2021/01/04 02:50:47;;;;;;;40.33;15.87;;;;;;;-1.03;100.00;100760.09;5032262;28;20239;-81
2021/01/04 02:53:34;;;;;;;31.57;12.97;;;;;;;-1.02;100.00;100759.28;5048350;28;20245;-81
2021/01/04 02:56:09;;;;;;;23.47;11.07;;;;;;;-1.01;100.00;100760.13;5043916;28;20199;-81
2021/01/04 02:58:54;;;;;;;28.40;11.97;;;;;;;-1.01;100.00;100760.13;5031880;28;20202;-82
2021/01/04 03:01:25;;;;;;;27.73;11.43;;;;;;;-1.01;100.00;100761.00;5031553;28;20204;-81
2021/01/04 03:03:51;;;;;;;26.10;11.50;;;;;;;-1.02;100.00;100761.84;5029063;28;20206;-81
2021/01/04 03:06:34;;;;;;;28.27;11.60;;;;;;;-1.03;100.00;100762.66;5032735;28;20204;-82
2021/01/04 03:09:00;;;;;;;28.73;10.87;;;;;;;-1.01;100.00;100760.13;5032737;28;20234;-81
2021/01/04 03:11:28;;;;;;;27.60;12.20;;;;;;;-1.01;100.00;100755.03;5029785;28;20200;-82
2021/01/04 03:13:59;;;;;;;22.00;10.33;;;;;;;-1.01;100.00;100760.13;5029425;28;20262;-82
2021/01/04 03:16:32;;;;;;;25.97;11.07;;;;;;;-1.04;100.00;100755.84;5031998;28;20545;-82
2021/01/04 03:19:03;;;;;;;24.33;11.50;;;;;;;-1.03;100.00;100747.31;5030031;28;20647;-81
2021/01/04 03:21:29;;;;;;;25.77;11.10;;;;;;;-1.03;100.00;100754.97;5034605;28;20200;-82
2021/01/04 03:23:57;;;;;;;25.20;12.10;;;;;;;-1.03;100.00;100752.41;5029387;28;20210;-81
2021/01/04 03:26:26;;;;;;;24.33;11.00;;;;;;;-1.04;100.00;100755.84;5032347;28;20584;-81
2021/01/04 03:28:52;;;;;;;26.27;9.73;;;;;;;-1.03;100.00;100756.69;5027392;28;20200;-82
2021/01/04 03:31:19;;;;;;;22.60;10.33;;;;;;;-1.05;100.00;100748.97;5031419;28;20200;-81
2021/01/04 03:33:45;;;;;;;20.20;10.40;;;;;;;-1.05;100.00;100750.66;5024351;28;20223;-81
2021/01/04 03:36:12;;;;;;;21.10;9.67;;;;;;;-1.06;100.00;100744.66;5030241;28;20611;-82
2021/01/04 03:38:38;;;;;;;19.70;9.57;;;;;;;-1.09;100.00;100748.84;5027836;28;20327;-82
2021/01/04 03:41:05;;;;;;;23.43;10.07;;;;;;;-1.10;100.00;100747.13;5032762;28;20205;-81
2021/01/04 03:43:30;;;;;;;24.13;8.83;;;;;;;-1.12;100.00;100753.91;5028255;28;20712;-81
2021/01/04 03:45:57;;;;;;;20.37;9.27;;;;;;;-1.11;100.00;100753.94;5030666;28;20226;-81
2021/01/04 03:48:24;;;;;;;21.33;10.10;;;;;;;-1.15;100.00;100750.44;5028294;28;20277;-82
2021/01/04 03:50:50;;;;;;;22.23;10.47;;;;;;;-1.14;100.00;100756.44;5011559;28;20585;-81
2021/01/04 03:53:17;;;;;;;23.67;10.77;;;;;;;-1.14;100.00;100759.00;5029651;28;20751;-82
2021/01/04 03:55:43;;;;;;;21.70;10.13;;;;;;;-1.13;100.00;100759.84;5029684;28;20262;-82
2021/01/04 03:58:10;;;;;;;23.53;10.07;;;;;;;-1.16;100.00;100758.09;5030528;28;20226;-82
2021/01/04 04:00:36;;;;;;;23.37;11.13;;;;;;;-1.15;100.00;100764.94;5011240;28;20209;-82
2021/01/04 04:03:02;;;;;;;21.17;9.57;;;;;;;-1.17;100.00;100761.47;5034510;28;20322;-81
2021/01/04 04:05:30;;;;;;;20.90;9.93;;;;;;;-1.16;100.00;100761.50;5027894;28;20201;-81
2021/01/04 04:07:56;;;;;;;27.30;10.13;;;;;;;-1.16;100.00;100769.19;5030775;28;20610;-81
2021/01/04 04:10:22;;;;;;;25.37;10.73;;;;;;;-1.13;100.00;100770.09;5029234;28;20287;-81
2021/01/04 04:12:48;;;;;;;24.43;10.17;;;;;;;-1.13;100.00;100768.38;5004163;28;20286;-81
2021/01/04 04:15:18;;;;;;;23.13;9.90;;;;;;;-1.11;100.00;100769.28;5024533;28;20211;-81
2021/01/04 04:17:44;;;;;;;24.20;10.80;;;;;;;-1.11;100.00;100766.72;5027814;28;20197;-82
2021/01/04 04:20:12;;;;;;;21.30;9.53;;;;;;;-1.10;100.00;100771.03;5029220;28;20238;-81
2021/01/04 04:22:38;;;;;;;23.23;9.80;;;;;;;-1.08;100.00;100763.38;5025980;28;20354;-81
2021/01/04 04:25:06;;;;;;;26.73;10.63;;;;;;;-1.08;100.00;100765.94;5027745;28;20338;-81
2021/01/04 04:27:33;;;;;;;19.83;9.87;;;;;;;-1.09;100.00;100765.09;5026090;28;20266;-80
2021/01/04 04:29:59;;;;;;;24.23;10.13;;;;;;;-1.09;100.00;100765.09;5027970;28;20204;-81
2021/01/04 04:32:25;;;;;;;23.07;10.30;;;;;;;-1.09;100.00;100762.53;5023456;28;20218;-82
2021/01/04 04:34:51;;;;;;;26.60;11.17;;;;;;;-1.09;100.00;100759.97;5026126;28;20707;-81
2021/01/04 04:37:17;;;;;;;21.50;9.77;;;;;;;-1.07;100.00;100768.53;5024555;28;20204;-81
2021/01/04 04:39:43;;;;;;;27.97;10.97;;;;;;;-1.08;100.00;100768.50;5025927;28;20246;-81
2021/01/04 04:42:13;;;;;;;21.37;9.50;;;;;;;-1.07;100.00;100767.66;5021844;28;20282;-81
2021/01/04 04:44:45;;;;;;;24.57;10.90;;;;;;;-1.08;100.00;100766.81;5026274;28;20202;-81
2021/01/04 04:47:30;;;;;;;26.00;10.83;;;;;;;-1.06;100.00;100772.81;5023050;28;20203;-81
2021/01/04 04:50:07;;;;;;;19.27;9.83;;;;;;;-1.06;100.00;100766.84;5026184;28;20200;-81
2021/01/04 04:53:09;;;;;;;25.20;10.63;;;;;;;-1.05;100.00;100776.28;5023035;28;20242;-81
2021/01/04 04:55:52;;;;;;;25.47;10.53;;;;;;;-1.04;100.00;100767.75;5026652;28;20211;-81
2021/01/04 04:58:31;;;;;;;28.53;10.77;;;;;;;-1.04;100.00;100768.63;5025794;28;20274;-81
2021/01/04 05:01:07;;;;;;;24.77;10.83;;;;;;;-1.03;100.00;100765.22;5035523;28;20199;-82
2021/01/04 05:03:50;;;;;;;27.73;10.83;;;;;;;-1.02;100.00;100768.63;5033076;28;20223;-81
2021/01/04 05:06:31;;;;;;;20.93;10.13;;;;;;;-1.03;100.00;100760.09;5034529;28;20196;-81
2021/01/04 05:09:14;;;;;;;26.83;10.23;;;;;;;-1.02;100.00;100764.41;5029868;28;20623;-81
2021/01/04 05:11:43;;;;;;;19.60;9.97;;;;;;;-1.02;100.00;100768.63;5035138;28;20211;-81
2021/01/04 05:14:14;;;;;;;25.23;10.90;;;;;;;-1.01;100.00;100772.94;5032920;28;20208;-82
2021/01/04 05:16:58;;;;;;;30.13;12.13;;;;;;;-1.03;100.00;100772.03;5036445;28;20195;-81
2021/01/04 05:19:44;;;;;;;26.03;10.50;;;;;;;-1.02;100.00;100771.19;5030426;28;20208;-81
2021/01/04 05:22:35;;;;;;;26.80;10.53;;;;;;;-1.02;100.00;100772.09;5033318;28;20216;-81
2021/01/04 05:25:22;;;;;;;28.27;11.40;;;;;;;-1.01;100.00;100771.22;5033404;28;20192;-81
2021/01/04 05:28:19;;;;;;;20.03;10.13;;;;;;;-1.01;100.00;100773.78;5030505;28;20229;-81
2021/01/04 05:31:01;;;;;;;21.77;10.17;;;;;;;-1.01;100.00;100778.06;5033037;28;20592;-81
2021/01/04 05:33:42;;;;;;;28.57;11.43;;;;;;;-1.01;100.00;100778.91;5032332;28;20230;-81
2021/01/04 05:36:22;;;;;;;23.60;10.40;;;;;;;-1.00;100.00;100780.66;5035347;28;20204;-82
2021/01/04 05:39:01;;;;;;;22.73;10.47;;;;;;;-1.01;100.00;100781.47;5012967;28;20225;-81
2021/01/04 05:41:44;;;;;;;25.77;10.83;;;;;;;-1.00;100.00;100777.25;5035485;28;20302;-82
2021/01/04 05:44:27;;;;;;;24.97;10.33;;;;;;;-1.00;100.00;100780.66;5012090;28;20207;-81
2021/01/04 05:47:02;;;;;;;26.57;11.30;;;;;;;-1.00;100.00;100782.34;5032889;28;20208;-81
2021/01/04 05:49:32;;;;;;;22.53;10.93;;;;;;;-1.00;100.00;100784.91;5033477;28;20714;-81
2021/01/04 05:51:58;;;;;;;25.27;10.47;;;;;;;-0.99;100.00;100784.06;5037483;28;20219;-82
2021/01/04 05:54:28;;;;;;;27.60;11.23;;;;;;;-0.99;100.00;100784.06;5033189;28;20223;-81
2021/01/04 05:57:04;;;;;;;24.70;10.50;;;;;;;-1.00;100.00;100787.47;5025412;28;20235;-81
2021/01/04 05:59:31;;;;;;;29.00;12.07;;;;;;;-1.00;100.00;100787.47;5029780;28;20545;-82
2021/01/04 06:02:01;;;;;;;28.27;11.20;;;;;;;-0.98;100.00;100785.81;5033865;28;20232;-82
2021/01/04 06:04:27;;;;;;;27.43;11.40;;;;;;;-0.99;100.00;100779.81;5031007;28;20203;-81
2021/01/04 06:06:57;;;;;;;31.13;11.67;;;;;;;-1.00;100.00;100787.47;5031287;28;20227;-82
2021/01/04 06:09:24;;;;;;;26.43;11.90;;;;;;;-0.99;100.00;100787.50;5013396;28;20214;-82
2021/01/04 06:11:52;;;;;;;29.37;11.93;;;;;;;-0.99;100.00;100779.81;5026502;28;20263;-82
2021/01/04 06:14:19;;;;;;;27.57;11.27;;;;;;;-1.00;100.00;100780.66;5029162;28;20614;-82
2021/01/04 06:16:47;;;;;;;27.70;10.67;;;;;;;-0.98;100.00;100788.38;5037533;28;20203;-82
2021/01/04 06:19:17;;;;;;;27.50;11.73;;;;;;;-1.00;100.00;100788.34;5024286;28;20197;-82
2021/01/04 06:21:47;;;;;;;28.60;11.07;;;;;;;-0.99;100.00;100786.63;5040529;28;20227;-82
2021/01/04 06:24:25;;;;;;;23.93;10.33;;;;;;;-1.00;100.00;100782.34;5044489;28;21137;-82
2021/01/04 06:26:53;;;;;;;25.03;11.13;;;;;;;-0.98;100.00;100789.22;5041309;28;20210;-82
2021/01/04 06:29:30;;;;;;;28.17;11.23;;;;;;;-0.99;100.00;100777.25;5038576;28;20200;-82
2021/01/04 06:31:58;;;;;;;29.30;11.57;;;;;;;-0.98;100.00;100781.56;5027135;28;20599;-82
2021/01/04 06:34:28;;;;;;;27.03;10.73;;;;;;;-0.98;100.00;100786.69;5029518;28;20212;-82
2021/01/04 06:36:59;;;;;;;26.37;11.00;;;;;;;-0.98;100.00;100789.22;5031937;28;20922;-82
2021/01/04 06:39:26;;;;;;;27.60;11.20;;;;;;;-0.99;100.00;100787.50;5034877;28;20648;-82
2021/01/04 06:41:53;;;;;;;23.27;10.57;;;;;;;-0.97;100.00;100790.09;5011710;28;20270;-82
2021/01/04 06:44:24;;;;;;;28.67;11.13;;;;;;;-0.97;100.00;100792.66;5030945;28;20571;-82
2021/01/04 06:47:34;;;;;;;27.57;11.13;;;;;;;-0.97;100.00;100788.41;5009706;28;497723;-82
2021/01/04 06:50:06;;;;;;;24.00;10.57;;;;;;;-0.98;100.00;100791.78;5010501;28;20640;-82
2021/01/04 06:52:56;;;;;;;27.93;11.23;;;;;;;-0.96;100.00;100802.06;5030174;28;20227;-82
2021/01/04 06:56:16;;;;;;;29.37;12.07;;;;;;;-0.96;100.00;100791.84;5014318;28;20353;-82
2021/01/04 06:59:13;;;;;;;29.53;11.87;;;;;;;-0.94;100.00;100804.66;4980477;28;20285;-82
2021/01/04 07:01:58;;;;;;;30.67;11.10;;;;;;;-0.93;100.00;100814.06;5027270;28;20330;-82
2021/01/04 07:04:45;;;;;;;28.93;10.90;;;;;;;-0.94;100.00;100808.09;5033840;28;20204;-82
2021/01/04 07:07:30;;;;;;;33.37;11.93;;;;;;;-0.94;100.00;100815.75;5014471;28;20576;-83
2021/01/04 07:10:31;;;;;;;35.80;13.53;;;;;;;-0.94;100.00;100815.75;5033217;28;20212;-82
2021/01/04 07:13:11;;;;;;;34.30;13.07;;;;;;;-0.96;100.00;100823.41;4984693;28;20241;-82
2021/01/04 07:15:42;;;;;;;29.23;13.43;;;;;;;-0.94;100.00;100815.75;5009963;28;20203;-82
2021/01/04 07:18:25;;;;;;;33.20;15.30;;;;;;;-0.93;100.00;100824.31;5012576;28;20205;-82
2021/01/04 07:21:18;;;;;;;30.97;11.03;;;;;;;-0.93;100.00;100824.31;5029745;28;20203;-83
2021/01/04 07:24:07;;;;;;;27.30;10.87;;;;;;;-0.93;100.00;100830.31;5031999;28;20212;-82
2021/01/04 07:26:44;;;;;;;25.27;11.60;;;;;;;-0.93;100.00;100831.97;5031975;28;20231;-82
2021/01/04 07:29:31;;;;;;;27.50;10.53;;;;;;;-0.93;100.00;100832.88;5025853;28;20719;-83
2021/01/04 07:32:03;;;;;;;30.73;11.53;;;;;;;-0.93;100.00;100831.97;5031082;28;20231;-83
2021/01/04 07:34:34;;;;;;;25.90;10.80;;;;;;;-0.91;100.00;100840.59;5029579;28;20640;-82
2021/01/04 07:37:21;;;;;;;25.23;10.93;;;;;;;-0.91;100.00;100846.56;5032976;28;20204;-83
2021/01/04 07:39:54;;;;;;;43.73;18.60;;;;;;;-0.90;100.00;100843.16;5038295;28;20212;-83
2021/01/04 07:42:37;;;;;;;32.03;12.90;;;;;;;-0.89;100.00;100849.16;5031860;28;20220;-83
2021/01/04 07:45:38;;;;;;;31.37;13.13;;;;;;;-0.89;100.00;100850.03;5013726;28;20199;-82
2021/01/04 07:48:28;;;;;;;28.33;11.60;;;;;;;-0.88;100.00;100850.88;5009768;28;20676;-82
2021/01/04 07:51:14;;;;;;;26.93;11.70;;;;;;;-0.88;100.00;100861.13;5030497;28;20287;-83
2021/01/04 07:54:17;;;;;;;31.80;12.47;;;;;;;-0.87;100.00;100858.59;5014123;28;20669;-83
2021/01/04 07:57:24;;;;;;;33.03;11.57;;;;;;;-0.88;100.00;100859.44;5029116;28;20355;-83
2021/01/04 08:00:01;;;;;;;28.27;12.53;;;;;;;-0.87;100.00;100878.22;5028558;28;20258;-83
2021/01/04 08:02:43;;;;;;;31.40;11.67;;;;;;;-0.87;100.00;100871.41;5031951;28;20493;-83
2021/01/04 08:05:38;;;;;;;27.07;12.00;;;;;;;-0.85;100.00;100866.31;5033620;28;20239;-83
2021/01/04 08:08:23;;;;;;;33.10;11.53;;;;;;;-0.84;100.00;100868.06;5042511;28;20214;-83
2021/01/04 08:11:09;;;;;;;25.87;11.20;;;;;;;-0.85;100.00;100863.75;5013827;28;20218;-83
2021/01/04 08:14:17;;;;;;;32.63;11.97;;;;;;;-0.85;100.00;100872.31;5034343;28;20216;-83
2021/01/04 08:16:48;;;;;;;26.57;11.50;;;;;;;-0.84;100.00;100863.81;5028996;28;20296;-83
2021/01/04 08:19:16;;;;;;;28.73;10.73;;;;;;;-0.83;100.00;100867.22;5034767;28;20200;-82
2021/01/04 08:21:51;;;;;;;37.47;12.83;;;;;;;-0.84;100.00;100873.19;5033444;28;20698;-82
2021/01/04 08:24:23;;;;;;;28.90;12.47;;;;;;;-0.81;100.00;100868.13;5015191;28;20233;-82
2021/01/04 08:27:07;;;;;;;28.87;12.47;;;;;;;-0.82;100.00;100868.97;5030923;28;20269;-82
2021/01/04 08:29:40;;;;;;;30.77;12.60;;;;;;;-0.82;100.00;100867.25;5031484;28;20203;-82
2021/01/04 08:32:17;;;;;;;31.57;13.50;;;;;;;-0.80;100.00;100870.72;5032667;28;20216;-82
2021/01/04 08:34:44;;;;;;;27.97;12.20;;;;;;;-0.78;100.00;100876.75;5032501;28;20218;-82
2021/01/04 08:37:13;;;;;;;32.30;12.00;;;;;;;-0.78;100.00;100873.31;5028710;28;20203;-82
2021/01/04 08:39:43;;;;;;;27.07;12.80;;;;;;;-0.78;100.00;100875.88;5033010;28;20215;-82
2021/01/04 08:42:31;;;;;;;32.53;14.80;;;;;;;-0.77;100.00;100880.19;5038072;28;20710;-82
2021/01/04 08:45:01;;;;;;;33.10;12.83;;;;;;;-0.79;100.00;100876.72;5032052;28;20242;-82
2021/01/04 08:47:31;;;;;;;35.90;12.03;;;;;;;-0.75;100.00;100880.22;5034466;28;20244;-82
2021/01/04 08:50:06;;;;;;;30.90;12.57;;;;;;;-0.74;100.00;100872.56;5038506;28;20538;-82
2021/01/04 08:52:42;;;;;;;27.53;12.37;;;;;;;-0.73;100.00;100881.97;5028557;28;20224;-82
2021/01/04 08:55:08;;;;;;;28.20;11.73;;;;;;;-0.71;100.00;100875.19;5032550;28;20195;-82
2021/01/04 08:57:42;;;;;;;35.20;12.70;;;;;;;-0.70;100.00;100878.63;5036044;28;20196;-82
2021/01/04 09:00:17;;;;;;;29.67;12.37;;;;;;;-0.70;100.00;100876.94;5035004;28;20348;-82
2021/01/04 09:02:43;;;;;;;33.47;12.37;;;;;;;-0.71;100.00;100877.75;5035986;28;20233;-82
2021/01/04 09:05:13;;;;;;;31.67;12.60;;;;;;;-0.68;100.00;100876.97;5032663;28;20251;-82
2021/01/04 09:07:49;;;;;;;31.27;12.53;;;;;;;-0.66;100.00;100876.19;5034219;28;20250;-82
2021/01/04 09:10:18;;;;;;;32.53;14.03;;;;;;;-0.63;100.00;100883.94;5034165;28;20886;-82
2021/01/04 09:12:47;;;;;;;33.77;14.10;;;;;;;-0.63;100.00;100886.50;5035344;28;20230;-82
2021/01/04 09:15:27;;;;;;;40.10;14.70;;;;;;;-0.65;100.00;100888.16;5030853;28;20649;-82
2021/01/04 09:18:08;;;;;;;37.07;14.13;;;;;;;-0.65;100.00;100888.16;5032302;28;20204;-82
2021/01/04 09:20:47;;;;;;;33.93;13.77;;;;;;;-0.64;100.00;100889.88;5032344;28;20920;-82
2021/01/04 09:23:26;;;;;;;33.37;13.73;;;;;;;-0.66;100.00;100888.97;5029747;28;20223;-82
2021/01/04 09:25:55;;;;;;;31.70;14.27;;;;;;;-0.63;100.00;100896.75;5030099;28;20207;-82
2021/01/04 09:28:24;;;;;;;29.60;14.03;;;;;;;-0.60;100.00;100898.50;5034828;28;20211;-82
2021/01/04 09:30:52;;;;;;;31.17;13.47;;;;;;;-0.59;100.00;100897.69;5028325;28;20236;-82
2021/01/04 09:33:19;;;;;;;44.83;13.90;;;;;;;-0.59;100.00;100898.53;5030597;28;20212;-82
2021/01/04 09:35:45;;;;;;;41.30;14.77;;;;;;;-0.59;100.00;100893.41;5029273;28;20230;-82
2021/01/04 09:38:19;;;;;;;39.83;13.57;;;;;;;-0.56;100.00;100897.75;5009695;28;20193;-82
2021/01/04 09:40:49;;;;;;;37.70;14.00;;;;;;;-0.57;100.00;100896.88;5030007;28;20195;-82
2021/01/04 09:43:15;;;;;;;39.63;15.43;;;;;;;-0.55;100.00;100893.50;5033849;28;20208;-82
2021/01/04 09:45:42;;;;;;;33.83;12.90;;;;;;;-0.54;100.00;100892.69;5031006;28;20267;-82
2021/01/04 09:48:17;;;;;;;34.50;14.87;;;;;;;-0.53;100.00;100879.03;5036116;28;20204;-82
2021/01/04 09:50:51;;;;;;;36.17;14.10;;;;;;;-0.52;100.00;100885.88;5040409;28;20205;-81
2021/01/04 09:53:24;;;;;;;37.30;14.70;;;;;;;-0.54;100.00;100883.28;5043132;28;20598;-82
2021/01/04 09:55:55;;;;;;;43.97;15.10;;;;;;;-0.54;100.00;100888.41;5042210;28;20745;-82
2021/01/04 09:58:21;;;;;;;32.07;13.67;;;;;;;-0.50;100.00;100881.66;5044195;28;20212;-82
2021/01/04 10:00:48;;;;;;;33.87;13.23;;;;;;;-0.51;100.00;100880.81;5041479;28;20204;-82
2021/01/04 10:03:16;;;;;;;33.80;14.27;;;;;;;-0.49;100.00;100884.25;5024446;28;20291;-82
2021/01/04 10:05:44;;;;;;;39.60;13.30;;;;;;;-0.51;100.00;100885.03;5022584;28;20192;-82
2021/01/04 10:08:13;;;;;;;39.53;13.10;;;;;;;-0.54;100.00;100885.84;5025936;28;20210;-82
2021/01/04 10:10:41;;;;;;;39.80;12.40;;;;;;;-0.50;100.00;100879.09;5029388;28;20196;-82
2021/01/04 10:13:10;;;;;;;39.10;14.83;;;;;;;-0.46;100.00;100886.00;5026758;28;20282;-82
2021/01/04 10:15:37;;;;;;;36.27;13.23;;;;;;;-0.48;100.00;100885.97;5030143;28;20204;-82
2021/01/04 10:18:14;;;;;;;32.07;12.93;;;;;;;-0.45;100.00;100885.19;5027214;28;20203;-82
2021/01/04 10:20:46;;;;;;;36.43;13.77;;;;;;;-0.45;100.00;100882.63;5027238;28;20691;-82
2021/01/04 10:23:22;;;;;;;36.60;14.50;;;;;;;-0.42;100.00;100886.13;5027007;28;20219;-82
2021/01/04 10:25:53;;;;;;;43.67;14.07;;;;;;;-0.45;100.00;100888.63;5033589;28;20212;-82
2021/01/04 10:28:19;;;;;;;38.37;14.87;;;;;;;-0.45;100.00;100888.63;5026686;28;20193;-82
2021/01/04 10:30:44;;;;;;;39.10;15.13;;;;;;;-0.47;100.00;100884.31;5028019;28;20226;-82
2021/01/04 10:33:22;;;;;;;34.87;15.40;;;;;;;-0.46;100.00;100876.66;5026257;28;20228;-82
2021/01/04 10:36:00;;;;;;;39.67;14.77;;;;;;;-0.46;100.00;100881.78;5023438;28;20252;-82
2021/01/04 10:38:26;;;;;;;34.47;13.83;;;;;;;-0.45;100.00;100872.38;5022775;28;20287;-82
2021/01/04 10:40:52;;;;;;;43.00;14.97;;;;;;;-0.44;100.00;100874.09;5021572;28;20586;-82
2021/01/04 10:43:20;;;;;;;34.17;13.50;;;;;;;-0.40;100.00;100875.94;5007590;28;20243;-82
2021/01/04 10:45:47;;;;;;;36.07;14.23;;;;;;;-0.42;100.00;100878.44;5026214;28;20200;-82
2021/01/04 10:48:17;;;;;;;44.70;14.80;;;;;;;-0.42;100.00;100869.91;5018667;28;20672;-81
2021/01/04 10:50:46;;;;;;;41.70;15.40;;;;;;;-0.43;100.00;100873.28;5020713;28;20614;-82
2021/01/04 10:53:14;;;;;;;42.70;14.37;;;;;;;-0.39;100.00;100875.06;5024069;28;20326;-82
2021/01/04 10:55:51;;;;;;;47.83;15.90;;;;;;;-0.38;100.00;100867.44;5029173;28;20200;-82
2021/01/04 10:58:24;;;;;;;40.53;15.43;;;;;;;-0.36;100.00;100861.47;5024547;28;20219;-82
2021/01/04 11:00:55;;;;;;;38.97;14.50;;;;;;;-0.36;100.00;100861.47;5024819;28;21320;-82
2021/01/04 11:03:23;;;;;;;43.10;15.23;;;;;;;-0.39;100.00;100852.91;5031207;28;20246;-82
2021/01/04 11:05:49;;;;;;;36.23;14.07;;;;;;;-0.39;100.00;100852.91;5032000;28;20217;-82
2021/01/04 11:08:26;;;;;;;45.33;14.60;;;;;;;-0.40;100.00;100847.75;5031781;28;20282;-82
2021/01/04 11:10:56;;;;;;;33.47;14.43;;;;;;;-0.36;100.00;100853.81;5031152;28;20203;-82
2021/01/04 11:13:31;;;;;;;39.80;15.27;;;;;;;-0.34;100.00;100852.13;5009752;28;20228;-82
2021/01/04 11:16:06;;;;;;;40.20;14.87;;;;;;;-0.39;100.00;100852.91;5028667;28;20200;-82
2021/01/04 11:18:32;;;;;;;44.83;13.80;;;;;;;-0.35;100.00;100858.06;5031602;28;20195;-82
2021/01/04 11:20:58;;;;;;;39.37;13.97;;;;;;;-0.35;100.00;100852.94;5011727;28;20193;-82
2021/01/04 11:23:24;;;;;;;39.10;14.43;;;;;;;-0.40;100.00;100852.88;5029523;28;20240;-82
2021/01/04 11:25:50;;;;;;;39.40;14.23;;;;;;;-0.39;100.00;100852.91;5011862;28;20234;-82
2021/01/04 11:28:16;;;;;;;39.17;15.07;;;;;;;-0.35;100.00;100850.38;5025876;28;20214;-82
2021/01/04 11:30:41;;;;;;;46.20;15.67;;;;;;;-0.34;100.00;100850.44;5020171;28;20638;-82
2021/01/04 11:33:14;;;;;;;39.00;15.30;;;;;;;-0.38;100.00;100849.50;5027099;28;20218;-82
2021/01/04 11:35:41;;;;;;;36.07;15.17;;;;;;;-0.36;100.00;100846.09;5025824;28;20200;-82